createdAt,value
2019-05-20T00:02:02.721Z,6.60
2019-05-20T00:04:31.543Z,3.55
2019-05-20T00:07:00.355Z,3.75
2019-05-20T00:09:29.178Z,3.62
2019-05-20T00:11:57.989Z,5.08
2019-05-20T00:14:26.812Z,4.50
2019-05-20T00:16:55.642Z,3.85
2019-05-20T00:19:24.488Z,3.05
2019-05-20T00:21:53.266Z,6.35
2019-05-20T00:24:22.096Z,4.85
2019-05-20T00:26:50.910Z,3.55
2019-05-20T00:29:19.736Z,5.35
2019-05-20T00:31:48.553Z,3.15
2019-05-20T00:34:17.375Z,4.60
2019-05-20T00:36:46.196Z,3.17
2019-05-20T00:39:21.544Z,3.20
2019-05-20T00:41:50.367Z,4.37
2019-05-20T00:44:19.388Z,3.98
2019-05-20T00:46:48.222Z,3.85
2019-05-20T00:49:17.028Z,3.30
2019-05-20T00:51:45.949Z,4.37
2019-05-20T00:54:14.970Z,3.15
2019-05-20T00:56:43.886Z,3.67
2019-05-20T00:59:12.707Z,3.60
2019-05-20T01:01:41.651Z,3.65
2019-05-20T01:04:10.539Z,3.80
2019-05-20T01:06:39.433Z,3.62
2019-05-20T01:09:08.653Z,3.12
2019-05-20T01:11:37.523Z,2.67
2019-05-20T01:14:05.188Z,3.72
2019-05-20T01:16:34.222Z,3.45
2019-05-20T01:19:03.074Z,2.72
2019-05-20T01:21:31.891Z,3.80
2019-05-20T01:24:00.754Z,3.58
2019-05-20T01:26:29.664Z,5.87
2019-05-20T01:28:58.470Z,3.75
2019-05-20T01:31:27.285Z,3.00
2019-05-20T01:33:56.117Z,5.50
2019-05-20T01:36:24.935Z,3.30
2019-05-20T01:38:53.796Z,3.35
2019-05-20T01:41:22.717Z,3.05
2019-05-20T01:43:51.580Z,5.53
2019-05-20T01:46:21.529Z,2.52
2019-05-20T01:48:50.414Z,6.47
2019-05-20T01:51:19.279Z,3.47
2019-05-20T01:53:48.147Z,4.25
2019-05-20T01:56:17.093Z,4.58
2019-05-20T01:58:45.990Z,12.40
2019-05-20T02:01:14.851Z,4.75
2019-05-20T02:03:43.764Z,3.95
2019-05-20T02:06:12.628Z,3.47
2019-05-20T02:08:41.518Z,3.15
2019-05-20T02:11:10.439Z,2.92
2019-05-20T02:13:57.222Z,3.47
2019-05-20T02:16:27.651Z,4.00
2019-05-20T02:18:56.469Z,2.83
2019-05-20T02:21:25.359Z,4.75
2019-05-20T02:23:54.159Z,4.42
2019-05-20T02:26:23.248Z,2.30
2019-05-20T02:28:52.109Z,4.28
2019-05-20T02:31:20.935Z,4.10
2019-05-20T02:33:52.151Z,4.87
2019-05-20T02:36:20.357Z,3.37
2019-05-20T02:38:49.244Z,3.30
2019-05-20T02:41:18.111Z,3.60
2019-05-20T02:43:46.995Z,2.47
2019-05-20T02:46:15.832Z,3.83
2019-05-20T02:48:44.644Z,5.35
2019-05-20T02:51:13.581Z,2.87
2019-05-20T02:53:43.426Z,2.77
2019-05-20T02:56:12.227Z,3.25
2019-05-20T02:58:41.044Z,3.17
2019-05-20T03:01:09.987Z,3.40
2019-05-20T03:03:38.784Z,3.72
2019-05-20T03:06:07.646Z,2.90
2019-05-20T03:08:36.454Z,3.30
2019-05-20T03:11:07.145Z,5.37
2019-05-20T03:13:35.952Z,2.33
2019-05-20T03:16:04.775Z,2.55
2019-05-20T03:18:33.599Z,3.55
2019-05-20T03:21:02.431Z,2.83
2019-05-20T03:23:31.344Z,4.95
2019-05-20T03:26:00.186Z,3.55
2019-05-20T03:28:28.987Z,4.30
2019-05-20T03:30:57.821Z,3.52
2019-05-20T03:33:26.656Z,2.67
2019-05-20T03:35:55.464Z,3.02
2019-05-20T03:38:24.303Z,5.20
2019-05-20T03:40:53.118Z,3.02
2019-05-20T03:43:21.934Z,3.50
2019-05-20T03:45:50.751Z,4.28
2019-05-20T03:48:19.579Z,3.27
2019-05-20T03:50:48.397Z,4.45
2019-05-20T03:53:17.281Z,2.92
2019-05-20T03:55:46.092Z,2.62
2019-05-20T03:58:14.916Z,3.90
2019-05-20T04:00:48.013Z,4.35
2019-05-20T04:03:17.011Z,4.80
2019-05-20T04:05:45.841Z,5.03
2019-05-20T04:08:14.701Z,5.30
2019-05-20T04:10:43.483Z,2.90
2019-05-20T04:13:12.307Z,4.25
2019-05-20T04:15:41.158Z,4.45
2019-05-20T04:18:09.973Z,4.75
2019-05-20T04:20:38.886Z,4.60
2019-05-20T04:23:07.711Z,4.70
2019-05-20T04:25:36.536Z,6.20
2019-05-20T04:28:05.545Z,4.70
2019-05-20T04:30:34.372Z,5.33
2019-05-20T04:33:03.203Z,3.65
2019-05-20T04:35:32.026Z,9.90
2019-05-20T04:38:00.835Z,7.92
2019-05-20T04:40:29.662Z,6.95
2019-05-20T04:42:58.575Z,8.28
2019-05-20T04:45:27.399Z,5.15
2019-05-20T04:47:56.219Z,10.60
2019-05-20T04:50:25.039Z,9.35
2019-05-20T04:52:53.862Z,18.05
2019-05-20T04:55:22.697Z,19.77
2019-05-20T04:57:51.507Z,13.28
2019-05-20T05:00:42.579Z,14.28
2019-05-20T05:03:11.403Z,13.22
2019-05-20T05:05:40.230Z,6.55
2019-05-20T05:08:09.055Z,14.78
2019-05-20T05:10:37.975Z,10.55
2019-05-20T05:13:06.807Z,23.27
2019-05-20T05:15:35.635Z,31.35
2019-05-20T05:18:04.552Z,36.00
2019-05-20T05:20:33.391Z,28.17
2019-05-20T05:23:02.207Z,26.10
2019-05-20T05:25:31.041Z,28.15
2019-05-20T05:27:59.858Z,17.42
2019-05-20T05:30:28.682Z,16.48
2019-05-20T05:32:57.499Z,19.07
2019-05-20T05:35:26.385Z,19.98
2019-05-20T05:37:55.338Z,18.57
2019-05-20T05:40:29.275Z,11.25
2019-05-20T05:42:58.096Z,13.72
2019-05-20T05:45:31.871Z,20.23
2019-05-20T05:48:00.891Z,14.25
2019-05-20T05:50:29.703Z,17.30
2019-05-20T05:52:58.602Z,16.70
2019-05-20T05:55:27.531Z,15.18
2019-05-20T05:57:56.397Z,13.22
2019-05-20T06:00:25.323Z,13.10
2019-05-20T06:02:54.156Z,12.95
2019-05-20T06:05:22.991Z,14.13
2019-05-20T06:07:51.828Z,14.95
2019-05-20T06:10:21.247Z,11.55
2019-05-20T06:12:51.611Z,19.98
2019-05-20T06:15:22.125Z,10.45
2019-05-20T06:17:58.065Z,13.53
2019-05-20T06:20:27.062Z,9.08
2019-05-20T06:22:55.918Z,9.78
2019-05-20T06:25:24.740Z,10.70
2019-05-20T06:27:53.596Z,10.18
2019-05-20T06:30:25.326Z,12.33
2019-05-20T06:32:54.268Z,9.88
2019-05-20T06:35:23.169Z,7.87
2019-05-20T06:37:53.863Z,7.08
2019-05-20T06:40:22.684Z,6.62
2019-05-20T06:42:51.607Z,12.47
2019-05-20T06:45:20.523Z,9.95
2019-05-20T06:47:49.350Z,8.80
2019-05-20T06:50:18.206Z,7.20
2019-05-20T06:52:47.076Z,11.20
2019-05-20T06:55:16.197Z,6.60
2019-05-20T06:57:45.119Z,8.75
2019-05-20T07:00:14.351Z,10.98
2019-05-20T07:02:43.218Z,11.38
2019-05-20T07:05:12.239Z,16.45
2019-05-20T07:07:41.127Z,17.55
2019-05-20T07:10:10.365Z,18.15
2019-05-20T07:12:41.647Z,18.05
2019-05-20T07:15:09.956Z,19.05
2019-05-20T07:17:38.774Z,17.65
2019-05-20T07:20:07.675Z,19.27
2019-05-20T07:22:53.903Z,17.87
2019-05-20T07:25:07.638Z,19.77
2019-05-20T07:27:36.469Z,18.37
2019-05-20T07:30:08.931Z,18.40
2019-05-20T07:32:37.744Z,19.12
2019-05-20T07:35:26.194Z,19.70
2019-05-20T07:37:41.684Z,17.62
2019-05-20T07:40:11.120Z,17.27
2019-05-20T07:42:40.058Z,12.78
2019-05-20T07:45:09.284Z,14.87
2019-05-20T07:47:38.615Z,16.97
2019-05-20T07:50:08.838Z,19.20
2019-05-20T07:52:38.498Z,14.75
2019-05-20T07:55:08.725Z,15.08
2019-05-20T07:57:40.739Z,14.80
2019-05-20T08:00:10.263Z,12.10
2019-05-20T08:02:39.381Z,12.80
2019-05-20T08:05:09.889Z,15.88
2019-05-20T08:07:51.216Z,11.80
2019-05-20T08:10:10.078Z,10.63
2019-05-20T08:12:38.878Z,13.88
2019-05-20T08:15:09.126Z,11.33
2019-05-20T08:17:38.025Z,13.65
2019-05-20T08:20:07.745Z,9.95
2019-05-20T08:22:36.663Z,11.95
2019-05-20T08:25:08.642Z,10.53
2019-05-20T08:27:37.451Z,8.73
2019-05-20T08:30:13.889Z,10.65
2019-05-20T08:32:40.496Z,11.08
2019-05-20T08:35:09.623Z,8.48
2019-05-20T08:37:45.479Z,7.40
2019-05-20T08:40:09.061Z,8.85
2019-05-20T08:42:37.876Z,10.55
2019-05-20T08:45:08.637Z,7.95
2019-05-20T08:47:37.595Z,8.83
2019-05-20T08:50:10.832Z,9.60
2019-05-20T08:52:37.539Z,8.18
2019-05-20T08:55:06.564Z,7.17
2019-05-20T08:57:35.395Z,10.03
2019-05-20T09:00:05.514Z,6.60
2019-05-20T09:02:36.077Z,10.70
2019-05-20T09:05:06.495Z,10.38
2019-05-20T09:07:35.484Z,8.25
2019-05-20T09:10:05.379Z,11.28
2019-05-20T09:12:34.203Z,10.98
2019-05-20T09:15:03.318Z,10.28
2019-05-20T09:17:32.151Z,9.78
2019-05-20T09:20:01.919Z,8.80
2019-05-20T09:22:31.371Z,9.43
2019-05-20T09:25:00.463Z,12.75
2019-05-20T09:27:29.425Z,9.13
2019-05-20T09:29:58.346Z,8.35
2019-05-20T09:32:27.576Z,8.85
2019-05-20T09:34:56.519Z,8.83
2019-05-20T09:37:25.431Z,8.13
2019-05-20T09:39:54.324Z,10.90
2019-05-20T09:42:23.139Z,7.75
2019-05-20T09:44:51.965Z,8.00
2019-05-20T09:47:20.795Z,11.08
2019-05-20T09:49:49.624Z,6.67
2019-05-20T09:52:18.471Z,7.87
2019-05-20T09:54:47.372Z,7.10
2019-05-20T09:57:16.184Z,10.30
2019-05-20T09:59:45.020Z,10.05
2019-05-20T10:02:13.835Z,6.22
2019-05-20T10:04:42.659Z,8.65
2019-05-20T10:07:11.475Z,5.97
2019-05-20T10:09:40.335Z,6.40
2019-05-20T10:12:09.146Z,5.72
2019-05-20T10:14:38.032Z,4.45
2019-05-20T10:17:06.855Z,5.80
2019-05-20T10:19:35.671Z,6.28
2019-05-20T10:22:04.501Z,5.00
2019-05-20T10:24:33.369Z,7.08
2019-05-20T10:27:02.148Z,4.28
2019-05-20T10:29:30.967Z,5.85
2019-05-20T10:31:59.846Z,4.87
2019-05-20T10:34:28.660Z,4.80
2019-05-20T10:36:57.538Z,7.05
2019-05-20T10:39:26.290Z,4.90
2019-05-20T10:41:55.105Z,4.97
2019-05-20T10:44:23.930Z,5.60
2019-05-20T10:46:52.856Z,3.33
2019-05-20T10:49:21.672Z,5.35
2019-05-20T10:51:50.498Z,3.70
2019-05-20T10:54:19.340Z,4.83
2019-05-20T10:56:48.156Z,6.30
2019-05-20T10:59:16.970Z,6.55
2019-05-20T11:01:45.787Z,5.55
2019-05-20T11:04:14.616Z,5.05
2019-05-20T11:06:43.464Z,5.08
2019-05-20T11:09:14.412Z,5.15
2019-05-20T11:11:42.875Z,5.45
2019-05-20T11:14:11.685Z,4.90
2019-05-20T11:16:40.517Z,5.22
2019-05-20T11:19:09.331Z,7.30
2019-05-20T11:21:38.172Z,4.00
2019-05-20T11:24:07.100Z,4.85
2019-05-20T11:26:35.917Z,5.15
2019-05-20T11:29:04.729Z,5.30
2019-05-20T11:31:33.615Z,5.30
2019-05-20T11:34:02.485Z,4.53
2019-05-20T11:36:31.323Z,7.25
2019-05-20T11:39:00.142Z,5.25
2019-05-20T11:41:52.316Z,4.58
2019-05-20T11:43:59.451Z,4.78
2019-05-20T11:46:28.331Z,4.50
2019-05-20T11:48:57.149Z,4.83
2019-05-20T11:51:25.968Z,5.10
2019-05-20T11:53:54.775Z,4.83
2019-05-20T11:56:23.781Z,4.67
2019-05-20T11:58:52.571Z,5.35
2019-05-20T12:01:21.427Z,5.25
2019-05-20T12:03:50.309Z,3.77
2019-05-20T12:06:19.126Z,6.58
2019-05-20T12:08:47.947Z,6.35
2019-05-20T12:11:16.775Z,3.72
2019-05-20T12:13:45.583Z,6.47
2019-05-20T12:16:14.458Z,5.58
2019-05-20T12:18:45.223Z,4.15
2019-05-20T12:21:13.719Z,3.62
2019-05-20T12:23:42.539Z,5.45
2019-05-20T12:26:11.395Z,4.42
2019-05-20T12:28:40.695Z,4.70
2019-05-20T12:31:09.511Z,5.33
2019-05-20T12:33:38.335Z,4.55
2019-05-20T12:36:07.254Z,6.55
2019-05-20T12:38:36.090Z,4.87
2019-05-20T12:41:04.903Z,5.05
2019-05-20T12:43:33.723Z,7.37
2019-05-20T12:46:02.826Z,5.67
2019-05-20T12:48:31.731Z,4.92
2019-05-20T12:51:01.331Z,4.95
2019-05-20T12:53:30.147Z,4.62
2019-05-20T12:55:58.965Z,4.80
2019-05-20T12:58:27.785Z,4.70
2019-05-20T13:00:56.628Z,7.35
2019-05-20T13:03:25.454Z,4.83
2019-05-20T13:05:54.348Z,4.65
2019-05-20T13:08:23.160Z,5.45
2019-05-20T13:10:51.974Z,6.58
2019-05-20T13:13:20.799Z,5.72
2019-05-20T13:15:49.616Z,4.85
2019-05-20T13:18:18.452Z,5.92
2019-05-20T13:20:47.301Z,5.25
2019-05-20T13:23:16.104Z,6.17
2019-05-20T13:25:44.933Z,5.95
2019-05-20T13:28:13.751Z,4.47
2019-05-20T13:30:42.572Z,5.10
2019-05-20T13:33:11.405Z,3.85
2019-05-20T13:35:40.216Z,8.33
2019-05-20T13:38:09.029Z,9.48
2019-05-20T13:40:46.474Z,5.12
2019-05-20T13:43:08.321Z,4.67
2019-05-20T13:45:37.140Z,3.58
2019-05-20T13:48:05.969Z,7.12
2019-05-20T13:50:34.805Z,4.67
2019-05-20T13:53:03.731Z,6.22
2019-05-20T13:55:32.543Z,4.05
2019-05-20T13:58:01.435Z,3.98
2019-05-20T14:00:30.179Z,5.42
2019-05-20T14:02:59.013Z,4.28
2019-05-20T14:05:27.854Z,4.45
2019-05-20T14:07:57.207Z,3.22
2019-05-20T14:10:26.136Z,4.95
2019-05-20T14:12:54.961Z,3.33
2019-05-20T14:15:25.053Z,5.15
2019-05-20T14:17:53.932Z,4.33
2019-05-20T14:20:22.859Z,4.92
2019-05-20T14:22:51.962Z,4.75
2019-05-20T14:25:20.850Z,2.83
2019-05-20T14:27:49.910Z,3.95
2019-05-20T14:30:18.808Z,6.05
2019-05-20T14:32:47.889Z,4.12
2019-05-20T14:35:17.124Z,2.47
2019-05-20T14:37:46.249Z,6.05
2019-05-20T14:40:15.375Z,6.67
2019-05-20T14:42:44.478Z,6.42
2019-05-20T14:45:13.807Z,4.53
2019-05-20T14:47:42.935Z,2.37
2019-05-20T14:50:12.342Z,4.28
2019-05-20T14:52:41.454Z,6.17
2019-05-20T14:55:10.451Z,8.00
2019-05-20T14:57:39.261Z,8.65
2019-05-20T15:00:09.193Z,3.62
2019-05-20T15:02:38.020Z,6.10
2019-05-20T15:05:07.793Z,6.78
2019-05-20T15:07:36.679Z,6.62
2019-05-20T15:10:09.869Z,8.43
2019-05-20T15:12:38.940Z,8.55
2019-05-20T15:15:08.465Z,8.73
2019-05-20T15:17:37.283Z,6.65
2019-05-20T15:20:07.607Z,7.12
2019-05-20T15:22:36.424Z,8.95
2019-05-20T15:25:06.266Z,21.45
2019-05-20T15:27:35.094Z,7.75
2019-05-20T15:30:05.214Z,6.42
2019-05-20T15:32:34.036Z,8.88
2019-05-20T15:35:03.072Z,9.25
2019-05-20T15:37:32.188Z,10.60
2019-05-20T15:40:01.336Z,8.63
2019-05-20T15:42:30.386Z,10.10
2019-05-20T15:44:59.454Z,10.00
2019-05-20T15:47:28.601Z,7.45
2019-05-20T15:49:57.717Z,8.68
2019-05-20T15:52:27.111Z,9.63
2019-05-20T15:54:56.193Z,9.43
2019-05-20T15:57:25.092Z,12.60
2019-05-20T15:59:55.243Z,12.00
2019-05-20T16:02:24.260Z,12.58
2019-05-20T16:04:53.057Z,12.53
2019-05-20T16:07:22.258Z,12.28
2019-05-20T16:09:51.382Z,11.22
2019-05-20T16:12:20.291Z,9.48
2019-05-20T16:14:51.420Z,12.25
2019-05-20T16:17:19.748Z,11.25
2019-05-20T16:19:48.561Z,11.15
2019-05-20T16:22:17.386Z,12.45
2019-05-20T16:24:46.224Z,11.80
2019-05-20T16:27:15.207Z,12.23
2019-05-20T16:29:44.078Z,9.10
2019-05-20T16:32:12.908Z,11.50
2019-05-20T16:34:41.740Z,9.53
2019-05-20T16:37:10.576Z,12.58
2019-05-20T16:39:39.401Z,10.90
2019-05-20T16:42:08.249Z,10.00
2019-05-20T16:44:37.047Z,10.15
2019-05-20T16:47:05.870Z,11.75
2019-05-20T16:49:34.693Z,9.25
2019-05-20T16:52:03.529Z,9.05
2019-05-20T16:54:32.359Z,14.30
2019-05-20T16:57:01.199Z,9.40
2019-05-20T16:59:30.017Z,11.65
2019-05-20T17:01:58.855Z,10.70
2019-05-20T17:04:27.676Z,10.85
2019-05-20T17:06:56.513Z,9.95
2019-05-20T17:09:25.330Z,11.38
2019-05-20T17:11:54.151Z,9.98
2019-05-20T17:14:22.971Z,11.85
2019-05-20T17:16:51.800Z,13.25
2019-05-20T17:19:20.610Z,8.03
2019-05-20T17:21:49.429Z,12.23
2019-05-20T17:24:18.247Z,8.28
2019-05-20T17:26:47.109Z,8.35
2019-05-20T17:29:15.896Z,10.98
2019-05-20T17:31:44.722Z,11.63
2019-05-20T17:34:13.571Z,10.43
2019-05-20T17:36:42.368Z,8.90
2019-05-20T17:39:11.188Z,10.75
2019-05-20T17:41:40.035Z,8.08
2019-05-20T17:44:08.859Z,9.80
2019-05-20T17:46:37.679Z,7.33
2019-05-20T17:49:06.494Z,9.50
2019-05-20T17:51:35.324Z,8.10
2019-05-20T17:54:04.219Z,7.78
2019-05-20T17:56:33.061Z,7.92
2019-05-20T17:59:01.956Z,7.72
2019-05-20T18:01:30.916Z,8.28
2019-05-20T18:03:59.744Z,8.20
2019-05-20T18:06:28.629Z,8.60
2019-05-20T18:08:58.958Z,8.38
2019-05-20T18:11:29.507Z,7.95
2019-05-20T18:13:58.569Z,7.95
2019-05-20T18:16:27.543Z,9.95
2019-05-20T18:18:56.367Z,10.90
2019-05-20T18:21:25.176Z,8.23
2019-05-20T18:23:54.009Z,9.03
2019-05-20T18:26:22.825Z,10.82
2019-05-20T18:28:51.654Z,8.33
2019-05-20T18:31:31.772Z,7.90
2019-05-20T18:33:50.974Z,8.93
2019-05-20T18:36:19.781Z,9.03
2019-05-20T18:38:49.626Z,8.63
2019-05-20T18:41:18.767Z,8.63
2019-05-20T18:43:47.590Z,7.55
2019-05-20T18:46:16.423Z,7.25
2019-05-20T18:48:45.268Z,6.58
2019-05-20T18:51:14.082Z,8.75
2019-05-20T18:53:42.897Z,7.08
2019-05-20T18:56:11.711Z,7.70
2019-05-20T18:58:40.532Z,6.65
2019-05-20T19:01:09.360Z,6.62
2019-05-20T19:03:38.287Z,6.95
2019-05-20T19:06:07.158Z,9.63
2019-05-20T19:08:35.971Z,8.08
2019-05-20T19:11:04.810Z,5.58
2019-05-20T19:13:33.632Z,8.13
2019-05-20T19:16:02.461Z,10.63
2019-05-20T19:18:31.289Z,10.28
2019-05-20T19:21:00.115Z,14.58
2019-05-20T19:23:28.926Z,13.00
2019-05-20T19:25:57.777Z,12.93
2019-05-20T19:28:26.617Z,14.25
2019-05-20T19:30:55.461Z,10.45
2019-05-20T19:33:24.707Z,10.43
2019-05-20T19:35:53.574Z,7.50
2019-05-20T19:38:22.949Z,8.93
2019-05-20T19:40:51.771Z,8.15
2019-05-20T19:43:20.600Z,9.78
2019-05-20T19:45:49.419Z,9.38
2019-05-20T19:48:18.258Z,10.90
2019-05-20T19:50:47.077Z,7.67
2019-05-20T19:53:15.922Z,7.58
2019-05-20T19:55:44.727Z,8.20
2019-05-20T19:58:13.559Z,12.15
2019-05-20T20:00:42.460Z,12.58
2019-05-20T20:03:11.264Z,10.65
2019-05-20T20:05:40.087Z,9.20
2019-05-20T20:08:08.949Z,7.12
2019-05-20T20:10:37.768Z,10.55
2019-05-20T20:13:06.605Z,7.92
2019-05-20T20:15:35.409Z,7.75
2019-05-20T20:18:04.314Z,6.67
2019-05-20T20:20:33.156Z,5.67
2019-05-20T20:23:01.977Z,10.00
2019-05-20T20:25:30.848Z,5.70
2019-05-20T20:28:00.766Z,6.72
2019-05-20T20:30:29.595Z,7.67
2019-05-20T20:32:58.431Z,6.50
2019-05-20T20:35:37.606Z,7.58
2019-05-20T20:37:57.725Z,6.53
2019-05-20T20:40:26.546Z,6.35
2019-05-20T20:42:55.391Z,5.03
2019-05-20T20:45:24.214Z,6.53
2019-05-20T20:47:53.031Z,4.53
2019-05-20T20:50:21.863Z,10.13
2019-05-20T20:52:50.740Z,7.30
2019-05-20T20:55:19.560Z,7.85
2019-05-20T20:57:48.382Z,6.08
2019-05-20T21:00:17.399Z,6.37
2019-05-20T21:02:53.091Z,5.75
2019-05-20T21:05:16.697Z,7.35
2019-05-20T21:07:45.553Z,5.35
2019-05-20T21:10:14.658Z,5.90
2019-05-20T21:12:43.491Z,6.80
2019-05-20T21:15:12.403Z,5.22
2019-05-20T21:17:41.243Z,10.13
2019-05-20T21:20:10.187Z,5.33
2019-05-20T21:22:38.991Z,7.55
2019-05-20T21:25:08.002Z,6.05
2019-05-20T21:27:36.829Z,9.53
2019-05-20T21:30:07.669Z,6.12
2019-05-20T21:32:36.695Z,5.10
2019-05-20T21:35:05.917Z,5.37
2019-05-20T21:37:34.722Z,5.97
2019-05-20T21:40:03.759Z,5.58
2019-05-20T21:42:32.566Z,4.62
2019-05-20T21:45:01.460Z,10.88
2019-05-20T21:47:30.272Z,4.80
2019-05-20T21:49:59.169Z,4.50
2019-05-20T21:52:29.494Z,5.30
2019-05-20T21:54:58.327Z,4.22
2019-05-20T21:57:27.142Z,5.97
2019-05-20T21:59:55.967Z,5.42
2019-05-20T22:02:26.737Z,7.53
2019-05-20T22:04:55.184Z,5.40
2019-05-20T22:07:24.214Z,4.55
2019-05-20T22:09:53.091Z,4.97
2019-05-20T22:12:21.839Z,5.35
2019-05-20T22:14:50.623Z,3.80
2019-05-20T22:17:19.390Z,3.85
2019-05-20T22:19:48.168Z,3.92
2019-05-20T22:22:30.132Z,5.92
2019-05-20T22:24:58.919Z,4.20
2019-05-20T22:27:27.703Z,4.10
2019-05-20T22:29:56.478Z,4.67
2019-05-20T22:32:25.282Z,6.87
2019-05-20T22:34:54.145Z,3.65
2019-05-20T22:37:22.925Z,4.20
2019-05-20T22:39:51.695Z,4.12
2019-05-20T22:42:20.472Z,4.87
2019-05-20T22:44:49.246Z,6.85
2019-05-20T22:47:18.015Z,5.47
2019-05-20T22:49:46.807Z,14.18
2019-05-20T22:52:15.579Z,3.85
2019-05-20T22:54:44.358Z,5.65
2019-05-20T22:57:13.147Z,6.87
2019-05-20T22:59:41.923Z,4.37
2019-05-20T23:02:10.699Z,6.10
2019-05-20T23:04:39.518Z,3.52
2019-05-20T23:07:08.247Z,4.17
2019-05-20T23:09:37.037Z,3.90
2019-05-20T23:12:05.815Z,3.77
2019-05-20T23:14:34.621Z,6.62
2019-05-20T23:17:03.418Z,4.47
2019-05-20T23:19:32.171Z,4.03
2019-05-20T23:22:00.954Z,6.95
2019-05-20T23:24:29.738Z,4.03
2019-05-20T23:26:58.514Z,4.03
2019-05-20T23:29:27.286Z,4.22
2019-05-20T23:31:56.075Z,5.75
2019-05-20T23:34:24.951Z,4.62
2019-05-20T23:36:53.731Z,3.00
2019-05-20T23:39:22.515Z,4.70
2019-05-20T23:41:51.307Z,4.62
2019-05-20T23:44:20.090Z,5.00
2019-05-20T23:46:48.882Z,5.05
2019-05-20T23:49:17.803Z,4.17
2019-05-20T23:51:46.591Z,2.98
2019-05-20T23:54:15.415Z,4.67
2019-05-20T23:56:44.235Z,4.50
2019-05-20T23:59:13.067Z,4.67
